createdAt,value
2019-06-20T00:00:31.603Z,79.53
2019-06-20T00:01:31.740Z,78.53
2019-06-20T00:02:31.865Z,78.73
2019-06-20T00:03:32.027Z,79.87
2019-06-20T00:04:32.155Z,80.51
2019-06-20T00:05:32.284Z,81.85
2019-06-20T00:06:32.449Z,81.76
2019-06-20T00:07:32.606Z,81.85
2019-06-20T00:08:32.735Z,81.32
2019-06-20T00:09:32.895Z,80.51
2019-06-20T00:10:33.026Z,81.12
2019-06-20T00:11:33.167Z,81.12
2019-06-20T00:12:33.294Z,80.91
2019-06-20T00:13:33.857Z,81.01
2019-06-20T00:14:33.619Z,79.61
2019-06-20T00:15:33.755Z,80.89
2019-06-20T00:16:34.357Z,81.27
2019-06-20T00:17:34.116Z,82.28
2019-06-20T00:18:34.257Z,82.34
2019-06-20T00:19:34.399Z,82.44
2019-06-20T00:20:34.522Z,81.85
2019-06-20T00:21:34.868Z,81.01
2019-06-20T00:22:34.827Z,80.21
2019-06-20T00:23:35.062Z,80.65
2019-06-20T00:24:35.847Z,80.11
2019-06-20T00:25:35.360Z,78.16
2019-06-20T00:26:35.522Z,78.77
2019-06-20T00:27:35.646Z,76.92
2019-06-20T00:28:36.862Z,77.72
2019-06-20T00:29:36.094Z,76.78
2019-06-20T00:30:36.226Z,76.78
2019-06-20T00:31:36.372Z,76.45
2019-06-20T00:32:36.523Z,76.25
2019-06-20T00:33:36.647Z,76.89
2019-06-20T00:34:36.779Z,78.06
2019-06-20T00:35:36.915Z,80.11
2019-06-20T00:36:37.038Z,80.35
2019-06-20T00:37:37.192Z,81.15
2019-06-20T00:38:37.321Z,81.49
2019-06-20T00:39:37.443Z,81.79
2019-06-20T00:40:37.686Z,81.79
2019-06-20T00:41:37.819Z,82.44
2019-06-20T00:42:37.979Z,83.18
2019-06-20T00:43:38.093Z,84.29
2019-06-20T00:44:38.336Z,83.72
2019-06-20T00:45:39.380Z,85.24
2019-06-20T00:46:38.635Z,84.29
2019-06-20T00:47:38.804Z,84.19
2019-06-20T00:48:38.982Z,84.25
2019-06-20T00:49:39.141Z,84.35
2019-06-20T00:50:39.298Z,84.53
2019-06-20T00:51:39.443Z,84.63
2019-06-20T00:52:40.363Z,85.58
2019-06-20T00:53:39.746Z,85.17
2019-06-20T00:54:39.883Z,85.68
2019-06-20T00:55:40.866Z,85.24
2019-06-20T00:56:40.223Z,84.83
2019-06-20T00:57:40.855Z,84.53
2019-06-20T00:58:40.871Z,84.74
2019-06-20T00:59:40.657Z,85.64
2019-06-20T01:00:40.786Z,85.88
2019-06-20T01:01:41.019Z,85.48
2019-06-20T01:02:41.258Z,86.33
2019-06-20T01:03:41.428Z,86.73
2019-06-20T01:04:41.546Z,88.04
2019-06-20T01:05:41.667Z,87.13
2019-06-20T01:06:41.811Z,87.03
2019-06-20T01:07:41.937Z,88.04
2019-06-20T01:08:42.157Z,87.84
2019-06-20T01:09:42.307Z,87.84
2019-06-20T01:10:42.421Z,87.63
2019-06-20T01:11:42.587Z,88.14
2019-06-20T01:12:43.370Z,88.14
2019-06-20T01:13:43.885Z,87.88
2019-06-20T01:14:43.103Z,88.59
2019-06-20T01:15:43.246Z,87.63
2019-06-20T01:16:43.398Z,87.09
2019-06-20T01:17:43.550Z,84.83
2019-06-20T01:18:43.743Z,84.59
2019-06-20T01:19:43.917Z,84.80
2019-06-20T01:20:44.057Z,84.19
2019-06-20T01:21:44.857Z,84.80
2019-06-20T01:22:45.455Z,84.80
2019-06-20T01:23:44.683Z,85.60
2019-06-20T01:24:44.880Z,86.55
2019-06-20T01:25:45.852Z,86.04
2019-06-20T01:26:45.865Z,85.94
2019-06-20T01:27:45.374Z,85.44
2019-06-20T01:28:45.527Z,85.34
2019-06-20T01:29:45.708Z,85.74
2019-06-20T01:30:45.866Z,86.24
2019-06-20T01:31:46.865Z,86.44
2019-06-20T01:32:46.853Z,85.90
2019-06-20T01:33:46.351Z,84.80
2019-06-20T01:34:46.508Z,85.80
2019-06-20T01:35:46.626Z,84.80
2019-06-20T01:36:46.776Z,84.59
2019-06-20T01:37:46.917Z,84.80
2019-06-20T01:38:47.048Z,85.54
2019-06-20T01:39:47.229Z,84.80
2019-06-20T01:40:47.356Z,84.45
2019-06-20T01:41:47.489Z,84.55
2019-06-20T01:42:47.637Z,82.74
2019-06-20T01:43:50.973Z,82.06
2019-06-20T01:44:48.992Z,81.26
2019-06-20T01:45:48.082Z,82.26
2019-06-20T01:46:48.215Z,82.30
2019-06-20T01:47:48.381Z,81.56
2019-06-20T01:48:48.513Z,81.35
2019-06-20T01:49:48.656Z,80.65
2019-06-20T01:50:48.778Z,80.81
2019-06-20T01:51:48.919Z,81.15
2019-06-20T01:52:50.085Z,82.50
2019-06-20T01:53:49.857Z,82.10
2019-06-20T01:54:50.361Z,81.39
2019-06-20T01:55:49.570Z,82.06
2019-06-20T01:56:49.836Z,82.06
2019-06-20T01:57:50.862Z,80.85
2019-06-20T01:58:50.084Z,80.51
2019-06-20T01:59:50.219Z,79.97
2019-06-20T02:00:50.370Z,78.22
2019-06-20T02:01:50.671Z,77.05
2019-06-20T02:02:51.795Z,76.85
2019-06-20T02:03:51.006Z,75.95
2019-06-20T02:04:51.275Z,76.98
2019-06-20T02:05:51.368Z,77.52
2019-06-20T02:06:51.624Z,77.48
2019-06-20T02:07:51.849Z,77.19
2019-06-20T02:08:51.990Z,76.52
2019-06-20T02:09:52.868Z,76.18
2019-06-20T02:10:52.342Z,74.94
2019-06-20T02:11:52.875Z,76.45
2019-06-20T02:12:52.749Z,75.78
2019-06-20T02:14:06.514Z,76.68
2019-06-20T02:14:55.142Z,75.58
2019-06-20T02:15:53.360Z,75.48
2019-06-20T02:16:53.533Z,75.58
2019-06-20T02:17:53.656Z,75.54
2019-06-20T02:18:54.376Z,75.88
2019-06-20T02:19:54.037Z,75.27
2019-06-20T02:20:54.200Z,75.74
2019-06-20T02:21:54.381Z,74.40
2019-06-20T02:22:54.528Z,74.27
2019-06-20T02:23:55.379Z,74.27
2019-06-20T02:24:54.861Z,74.10
2019-06-20T02:25:55.039Z,74.60
2019-06-20T02:26:55.181Z,74.30
2019-06-20T02:27:55.317Z,75.14
2019-06-20T02:28:55.474Z,74.57
2019-06-20T02:29:57.375Z,76.08
2019-06-20T02:30:55.877Z,75.82
2019-06-20T02:31:56.029Z,76.42
2019-06-20T02:32:56.193Z,76.42
2019-06-20T02:33:56.384Z,76.86
2019-06-20T02:34:56.545Z,77.20
2019-06-20T02:35:56.730Z,78.14
2019-06-20T02:36:56.882Z,78.84
2019-06-20T02:37:57.387Z,78.74
2019-06-20T02:38:57.265Z,78.70
2019-06-20T02:39:57.451Z,78.10
2019-06-20T02:40:57.613Z,77.20
2019-06-20T02:41:57.775Z,76.63
2019-06-20T02:42:58.887Z,78.14
2019-06-20T02:43:58.101Z,79.04
2019-06-20T02:44:58.353Z,78.74
2019-06-20T02:45:58.475Z,78.67
2019-06-20T02:46:58.631Z,79.74
2019-06-20T02:47:58.746Z,79.38
2019-06-20T02:48:58.870Z,80.29
2019-06-20T02:49:58.982Z,80.08
2019-06-20T02:50:59.133Z,79.14
2019-06-20T02:51:59.256Z,78.50
2019-06-20T02:52:59.391Z,78.20
2019-06-20T02:53:59.524Z,78.40
2019-06-20T02:54:59.671Z,78.30
2019-06-20T02:55:59.935Z,77.66
2019-06-20T02:57:00.069Z,76.65
2019-06-20T02:58:00.217Z,76.52
2019-06-20T02:59:00.324Z,76.82
2019-06-20T03:00:01.474Z,76.56
2019-06-20T03:01:00.684Z,77.56
2019-06-20T03:02:00.817Z,77.39
2019-06-20T03:03:00.930Z,78.20
2019-06-20T03:04:01.168Z,78.30
2019-06-20T03:05:01.412Z,78.10
2019-06-20T03:06:01.557Z,78.30
2019-06-20T03:07:01.782Z,79.14
2019-06-20T03:08:02.935Z,79.00
2019-06-20T03:09:02.217Z,78.20
2019-06-20T03:10:02.461Z,78.70
2019-06-20T03:11:02.893Z,78.50
2019-06-20T03:12:02.862Z,78.27
2019-06-20T03:13:03.103Z,76.82
2019-06-20T03:14:04.880Z,76.02
2019-06-20T03:15:03.455Z,76.52
2019-06-20T03:16:03.595Z,76.96
2019-06-20T03:17:03.706Z,77.66
2019-06-20T03:18:03.824Z,77.56
2019-06-20T03:19:03.937Z,78.36
2019-06-20T03:20:05.170Z,77.22
2019-06-20T03:21:04.365Z,77.62
2019-06-20T03:22:04.895Z,76.82
2019-06-20T03:23:04.744Z,76.38
2019-06-20T03:24:04.976Z,76.98
2019-06-20T03:25:05.088Z,76.18
2019-06-20T03:26:05.363Z,77.06
2019-06-20T03:27:05.473Z,77.83
2019-06-20T03:28:05.590Z,76.78
2019-06-20T03:29:05.731Z,76.08
2019-06-20T03:30:05.875Z,75.88
2019-06-20T03:31:06.005Z,76.92
2019-06-20T03:32:06.176Z,76.62
2019-06-20T03:33:06.351Z,76.18
2019-06-20T03:34:06.494Z,76.38
2019-06-20T03:35:06.843Z,75.64
2019-06-20T03:36:06.915Z,76.65
2019-06-20T03:37:07.075Z,76.98
2019-06-20T03:38:07.243Z,76.54
2019-06-20T03:39:07.403Z,76.62
2019-06-20T03:40:08.383Z,78.36
2019-06-20T03:41:07.737Z,78.06
2019-06-20T03:42:07.873Z,78.56
2019-06-20T03:43:09.127Z,78.46
2019-06-20T03:44:08.282Z,78.16
2019-06-20T03:45:08.455Z,78.77
2019-06-20T03:46:09.404Z,78.16
2019-06-20T03:47:08.787Z,77.52
2019-06-20T03:48:08.960Z,76.72
2019-06-20T03:49:09.123Z,78.22
2019-06-20T03:50:09.285Z,77.46
2019-06-20T03:51:09.428Z,78.40
2019-06-20T03:52:09.593Z,79.06
2019-06-20T03:53:09.739Z,79.10
2019-06-20T03:54:09.912Z,78.70
2019-06-20T03:55:10.023Z,80.45
2019-06-20T03:56:10.179Z,80.75
2019-06-20T03:57:10.326Z,80.15
2019-06-20T03:58:10.466Z,80.65
2019-06-20T03:59:11.457Z,80.69
2019-06-20T04:00:10.824Z,80.08
2019-06-20T04:01:11.017Z,80.69
2019-06-20T04:02:11.150Z,80.58
2019-06-20T04:03:11.281Z,79.74
2019-06-20T04:04:11.523Z,80.55
2019-06-20T04:05:11.726Z,80.35
2019-06-20T04:06:11.899Z,81.19
2019-06-20T04:07:12.056Z,80.45
2019-06-20T04:08:12.211Z,80.55
2019-06-20T04:09:12.896Z,80.25
2019-06-20T04:10:12.594Z,80.41
2019-06-20T04:11:12.726Z,80.41
2019-06-20T04:12:12.948Z,80.21
2019-06-20T04:13:13.098Z,79.91
2019-06-20T04:14:13.888Z,80.01
2019-06-20T04:15:19.065Z,79.71
2019-06-20T04:16:15.516Z,80.01
2019-06-20T04:17:13.757Z,80.05
2019-06-20T04:18:13.902Z,80.35
2019-06-20T04:19:14.106Z,80.69
2019-06-20T04:20:14.282Z,80.39
2019-06-20T04:21:14.565Z,80.69
2019-06-20T04:22:14.613Z,81.79
2019-06-20T04:23:14.749Z,81.63
2019-06-20T04:24:14.927Z,81.79
2019-06-20T04:25:15.122Z,80.83
2019-06-20T04:26:15.278Z,82.24
2019-06-20T04:27:15.430Z,81.13
2019-06-20T04:28:15.576Z,80.93
2019-06-20T04:29:15.734Z,80.19
2019-06-20T04:30:16.921Z,79.94
2019-06-20T04:31:16.420Z,78.80
2019-06-20T04:32:16.180Z,77.46
2019-06-20T04:33:16.314Z,76.65
2019-06-20T04:34:17.405Z,76.15
2019-06-20T04:35:17.411Z,76.96
2019-06-20T04:36:16.799Z,77.56
2019-06-20T04:37:17.894Z,77.29
2019-06-20T04:38:17.105Z,78.60
2019-06-20T04:39:19.620Z,78.16
2019-06-20T04:40:19.461Z,77.76
2019-06-20T04:41:17.580Z,78.42
2019-06-20T04:42:18.754Z,76.82
2019-06-20T04:43:18.959Z,76.48
2019-06-20T04:44:18.138Z,75.58
2019-06-20T04:45:31.451Z,75.71
2019-06-20T04:46:19.450Z,76.52
2019-06-20T04:47:18.601Z,77.02
2019-06-20T04:48:18.800Z,76.72
2019-06-20T04:49:19.930Z,76.52
2019-06-20T04:50:20.196Z,76.82
2019-06-20T04:51:19.456Z,75.92
2019-06-20T04:52:19.622Z,75.78
2019-06-20T04:53:19.765Z,75.11
2019-06-20T04:54:20.913Z,76.38
2019-06-20T04:55:20.146Z,75.74
2019-06-20T04:56:20.305Z,74.54
2019-06-20T04:57:20.460Z,74.07
2019-06-20T04:58:20.617Z,73.57
2019-06-20T04:59:20.719Z,71.69
2019-06-20T05:00:21.404Z,69.96
2019-06-20T05:01:21.902Z,69.36
2019-06-20T05:02:21.299Z,71.46
2019-06-20T05:03:21.927Z,70.96
2019-06-20T05:04:22.397Z,70.92
2019-06-20T05:05:21.747Z,69.39
2019-06-20T05:06:21.885Z,69.12
2019-06-20T05:07:22.015Z,69.49
2019-06-20T05:08:22.277Z,69.12
2019-06-20T05:09:22.932Z,69.19
2019-06-20T05:10:22.559Z,69.32
2019-06-20T05:11:22.706Z,70.89
2019-06-20T05:12:22.907Z,70.19
2019-06-20T05:13:23.059Z,70.69
2019-06-20T05:14:23.211Z,70.83
2019-06-20T05:15:23.490Z,71.73
2019-06-20T05:16:24.409Z,72.86
2019-06-20T05:17:23.787Z,72.66
2019-06-20T05:18:23.906Z,72.06
2019-06-20T05:19:24.029Z,73.70
2019-06-20T05:20:24.208Z,73.10
2019-06-20T05:21:24.357Z,74.64
2019-06-20T05:22:24.605Z,75.14
2019-06-20T05:23:24.795Z,74.74
2019-06-20T05:24:25.923Z,74.14
2019-06-20T05:25:25.188Z,74.94
2019-06-20T05:26:25.333Z,74.64
2019-06-20T05:27:26.408Z,75.34
2019-06-20T05:28:26.417Z,74.60
2019-06-20T05:29:25.791Z,74.01
2019-06-20T05:30:25.960Z,73.20
2019-06-20T05:31:26.116Z,74.57
2019-06-20T05:32:26.317Z,75.68
2019-06-20T05:33:26.487Z,74.84
2019-06-20T05:34:26.709Z,75.58
2019-06-20T05:35:26.854Z,75.58
2019-06-20T05:36:26.979Z,74.77
2019-06-20T05:37:27.129Z,75.68
2019-06-20T05:38:27.317Z,74.48
2019-06-20T05:39:28.412Z,75.62
2019-06-20T05:40:27.642Z,76.21
2019-06-20T05:41:27.831Z,75.85
2019-06-20T05:42:28.919Z,76.56
2019-06-20T05:43:28.146Z,76.45
2019-06-20T05:44:28.281Z,77.96
2019-06-20T05:45:28.424Z,78.36
2019-06-20T05:46:28.581Z,76.52
2019-06-20T05:47:28.709Z,77.16
2019-06-20T05:48:29.841Z,79.97
2019-06-20T05:49:28.977Z,78.56
2019-06-20T05:50:29.923Z,78.27
2019-06-20T05:51:29.437Z,80.07
2019-06-20T05:52:29.932Z,78.46
2019-06-20T05:53:29.670Z,76.68
2019-06-20T05:54:29.906Z,76.75
2019-06-20T05:55:30.028Z,76.65
2019-06-20T05:56:30.174Z,76.15
2019-06-20T05:57:30.333Z,75.84
2019-06-20T05:58:30.463Z,76.45
2019-06-20T05:59:31.418Z,75.54
2019-06-20T06:00:31.435Z,76.04
2019-06-20T06:01:30.943Z,75.64
2019-06-20T06:02:31.197Z,73.60
2019-06-20T06:03:31.335Z,74.77
2019-06-20T06:04:32.518Z,74.44
2019-06-20T06:05:31.661Z,74.98
2019-06-20T06:06:31.819Z,76.56
2019-06-20T06:07:31.957Z,78.16
2019-06-20T06:08:32.124Z,77.32
2019-06-20T06:09:32.291Z,77.62
2019-06-20T06:10:32.445Z,78.39
2019-06-20T06:11:32.601Z,78.33
2019-06-20T06:12:32.780Z,78.39
2019-06-20T06:13:32.964Z,76.68
2019-06-20T06:14:33.138Z,76.58
2019-06-20T06:15:33.283Z,76.04
2019-06-20T06:16:34.434Z,75.54
2019-06-20T06:17:33.683Z,75.21
2019-06-20T06:18:34.419Z,76.51
2019-06-20T06:19:34.069Z,75.91
2019-06-20T06:20:34.216Z,75.91
2019-06-20T06:21:34.336Z,75.51
2019-06-20T06:22:35.423Z,76.81
2019-06-20T06:23:34.666Z,76.54
2019-06-20T06:24:34.857Z,75.54
2019-06-20T06:25:34.985Z,75.84
2019-06-20T06:26:36.118Z,78.49
2019-06-20T06:27:35.359Z,78.39
2019-06-20T06:28:36.427Z,79.73
2019-06-20T06:29:35.676Z,78.12
2019-06-20T06:30:35.881Z,79.97
2019-06-20T06:31:36.932Z,81.21
2019-06-20T06:32:39.996Z,80.37
2019-06-20T06:33:37.448Z,81.74
2019-06-20T06:34:36.708Z,80.07
2019-06-20T06:35:36.843Z,80.57
2019-06-20T06:36:37.436Z,80.83
2019-06-20T06:37:37.187Z,80.94
2019-06-20T06:38:37.324Z,80.06
2019-06-20T06:39:37.483Z,78.59
2019-06-20T06:40:37.660Z,78.85
2019-06-20T06:41:37.794Z,77.95
2019-06-20T06:42:37.919Z,76.81
2019-06-20T06:43:41.936Z,77.21
2019-06-20T06:44:39.936Z,78.02
2019-06-20T06:45:38.458Z,77.25
2019-06-20T06:46:45.843Z,78.25
2019-06-20T06:47:40.432Z,76.85
2019-06-20T06:48:39.049Z,77.21
2019-06-20T06:49:39.938Z,77.41
2019-06-20T06:50:39.475Z,76.81
2019-06-20T06:51:39.684Z,76.45
2019-06-20T06:52:39.831Z,76.81
2019-06-20T06:53:39.990Z,76.45
2019-06-20T06:54:40.198Z,77.39
2019-06-20T06:55:40.671Z,77.05
2019-06-20T06:56:40.585Z,78.11
2019-06-20T06:57:40.760Z,76.71
2019-06-20T06:58:40.952Z,74.60
2019-06-20T06:59:41.106Z,73.84
2019-06-20T07:00:41.268Z,74.94
2019-06-20T07:01:41.439Z,74.57
2019-06-20T07:02:41.720Z,77.05
2019-06-20T07:03:41.742Z,75.91
2019-06-20T07:04:42.441Z,73.73
2019-06-20T07:05:42.092Z,71.66
2019-06-20T07:06:42.240Z,71.96
2019-06-20T07:07:42.383Z,72.96
2019-06-20T07:08:42.506Z,72.63
2019-06-20T07:09:42.739Z,71.99
2019-06-20T07:10:42.954Z,70.09
2019-06-20T07:11:43.776Z,70.29
2019-06-20T07:12:43.275Z,68.89
2019-06-20T07:13:44.441Z,67.76
2019-06-20T07:14:43.693Z,66.53
2019-06-20T07:15:43.882Z,67.69
2019-06-20T07:16:56.551Z,66.73
2019-06-20T07:17:46.168Z,67.19
2019-06-20T07:18:44.400Z,65.73
2019-06-20T07:19:44.564Z,66.60
2019-06-20T07:20:44.725Z,65.10
2019-06-20T07:21:45.465Z,65.13
2019-06-20T07:22:45.137Z,67.33
2019-06-20T07:23:45.268Z,65.80
2019-06-20T07:24:45.940Z,66.56
2019-06-20T07:25:45.683Z,65.97
2019-06-20T07:26:45.830Z,65.37
2019-06-20T07:27:46.047Z,65.14
2019-06-20T07:28:46.208Z,64.94
2019-06-20T07:29:46.337Z,64.94
2019-06-20T07:30:46.479Z,64.34
2019-06-20T07:31:46.652Z,64.94
2019-06-20T07:32:46.832Z,65.47
2019-06-20T07:33:46.958Z,65.34
2019-06-20T07:34:47.944Z,64.84
2019-06-20T07:35:47.334Z,65.04
2019-06-20T07:36:47.589Z,64.84
2019-06-20T07:37:47.829Z,64.41
2019-06-20T07:38:47.960Z,63.04
2019-06-20T07:39:48.086Z,64.30
2019-06-20T07:40:48.470Z,63.83
2019-06-20T07:41:48.360Z,66.73
2019-06-20T07:42:48.506Z,65.03
2019-06-20T07:43:48.668Z,65.73
2019-06-20T07:44:48.792Z,65.23
2019-06-20T07:46:02.115Z,65.60
2019-06-20T07:46:51.162Z,64.97
2019-06-20T07:47:49.395Z,64.47
2019-06-20T07:48:50.542Z,65.00
2019-06-20T07:49:49.740Z,65.50
2019-06-20T07:50:49.911Z,64.87
2019-06-20T07:51:50.065Z,65.47
2019-06-20T07:53:01.380Z,64.04
2019-06-20T07:53:52.486Z,64.11
2019-06-20T07:54:50.973Z,62.51
2019-06-20T07:55:51.445Z,62.15
2019-06-20T07:56:51.037Z,65.17
2019-06-20T07:57:51.191Z,64.77
2019-06-20T07:58:51.322Z,65.23
2019-06-20T07:59:51.472Z,64.74
2019-06-20T08:00:51.594Z,63.51
2019-06-20T08:01:52.459Z,63.81
2019-06-20T08:02:51.979Z,64.41
2019-06-20T08:03:52.159Z,63.98
2019-06-20T08:04:52.469Z,64.07
2019-06-20T08:05:52.645Z,62.15
2019-06-20T08:06:52.795Z,63.67
2019-06-20T08:07:53.470Z,64.33
2019-06-20T08:08:53.162Z,65.13
2019-06-20T08:09:53.309Z,65.16
2019-06-20T08:10:53.493Z,66.06
2019-06-20T08:11:53.651Z,65.89
2019-06-20T08:12:53.816Z,67.69
2019-06-20T08:13:53.966Z,66.49
2019-06-20T08:14:54.131Z,65.69
2019-06-20T08:15:54.304Z,65.49
2019-06-20T08:16:54.973Z,66.09
2019-06-20T08:17:54.670Z,65.56
2019-06-20T08:18:54.894Z,64.33
2019-06-20T08:19:55.018Z,65.33
2019-06-20T08:20:55.147Z,65.40
2019-06-20T08:21:55.296Z,64.50
2019-06-20T08:22:55.401Z,65.03
2019-06-20T08:23:55.524Z,64.47
2019-06-20T08:24:56.724Z,63.54
2019-06-20T08:25:57.183Z,62.21
2019-06-20T08:26:57.536Z,61.99
2019-06-20T08:27:57.817Z,61.02
2019-06-20T08:29:10.205Z,61.11
2019-06-20T08:29:59.066Z,62.64
2019-06-20T08:30:57.837Z,62.04
2019-06-20T08:31:57.961Z,61.05
2019-06-20T08:33:01.158Z,62.15
2019-06-20T08:33:58.893Z,62.41
2019-06-20T08:34:59.422Z,61.02
2019-06-20T08:35:58.913Z,59.79
2019-06-20T08:37:00.447Z,61.11
2019-06-20T08:38:01.021Z,63.00
2019-06-20T08:38:58.675Z,63.90
2019-06-20T08:40:00.033Z,63.17
2019-06-20T08:41:00.111Z,62.84
2019-06-20T08:42:00.510Z,61.58
2019-06-20T08:43:00.267Z,59.79
2019-06-20T08:44:00.273Z,60.06
2019-06-20T08:44:59.520Z,58.28
2019-06-20T08:45:59.637Z,58.01
2019-06-20T08:47:02.220Z,57.99
2019-06-20T08:48:00.483Z,56.94
2019-06-20T08:49:01.379Z,55.87
2019-06-20T08:50:01.490Z,54.55
2019-06-20T08:51:00.547Z,54.85
2019-06-20T08:52:01.278Z,53.65
2019-06-20T08:53:01.671Z,52.19
2019-06-20T08:54:01.241Z,53.83
2019-06-20T08:55:03.356Z,53.23
2019-06-20T08:56:01.361Z,52.88
2019-06-20T08:57:01.582Z,51.30
2019-06-20T08:58:03.370Z,51.92
2019-06-20T08:59:02.612Z,52.79
2019-06-20T09:04:04.033Z,52.84
2019-06-20T09:05:04.135Z,50.71
2019-06-20T09:08:05.479Z,48.01
2019-06-20T09:09:04.462Z,50.65
2019-06-20T09:10:05.137Z,52.12
2019-06-20T09:11:04.386Z,53.76
2019-06-20T09:12:05.109Z,54.68
2019-06-20T09:13:05.753Z,53.66
2019-06-20T09:14:05.479Z,54.88
2019-06-20T09:15:05.172Z,54.78
2019-06-20T09:16:05.402Z,56.96
2019-06-20T09:17:05.635Z,56.44
2019-06-20T09:18:05.873Z,55.67
2019-06-20T09:19:06.103Z,55.25
2019-06-20T09:20:06.330Z,54.50
2019-06-20T09:21:06.554Z,52.94
2019-06-20T09:22:06.665Z,52.17
2019-06-20T09:23:06.789Z,49.00
2019-06-20T09:24:07.027Z,51.20
2019-06-20T09:25:07.295Z,51.20
2019-06-20T09:26:07.400Z,51.18
2019-06-20T09:27:07.674Z,50.29
2019-06-20T09:28:07.839Z,48.75
2019-06-20T09:29:07.971Z,49.87
2019-06-20T09:30:08.203Z,49.49
2019-06-20T09:31:08.462Z,49.10
2019-06-20T09:32:08.676Z,47.29
2019-06-20T09:33:08.907Z,49.57
2019-06-20T09:34:09.055Z,49.00
2019-06-20T09:35:09.161Z,48.13
2019-06-20T09:36:09.408Z,49.79
2019-06-20T09:37:10.484Z,48.97
2019-06-20T09:38:09.831Z,48.58
2019-06-20T09:39:10.485Z,49.96
2019-06-20T09:40:10.087Z,48.46
2019-06-20T09:41:10.262Z,47.05
2019-06-20T09:42:10.365Z,46.80
2019-06-20T09:43:10.630Z,50.11
2019-06-20T09:44:10.733Z,50.34
2019-06-20T09:45:10.972Z,49.37
2019-06-20T09:46:11.218Z,50.38
2019-06-20T09:47:11.424Z,48.65
2019-06-20T09:48:12.480Z,48.77
2019-06-20T09:49:11.776Z,49.69
2019-06-20T09:50:11.989Z,50.78
2019-06-20T09:51:12.223Z,50.90
2019-06-20T09:52:12.579Z,50.28
2019-06-20T09:53:12.604Z,50.46
2019-06-20T09:54:13.491Z,50.36
2019-06-20T09:55:12.958Z,48.25
2019-06-20T09:56:13.564Z,50.18
2019-06-20T09:57:13.437Z,51.20
2019-06-20T09:58:13.553Z,50.51
2019-06-20T09:59:27.124Z,51.20
2019-06-20T10:00:14.883Z,50.11
2019-06-20T10:01:14.090Z,50.48
2019-06-20T10:02:14.245Z,48.87
2019-06-20T10:03:14.371Z,48.18
2019-06-20T10:04:14.486Z,47.90
2019-06-20T10:05:15.503Z,48.42
2019-06-20T10:06:15.016Z,49.76
2019-06-20T10:07:15.173Z,50.45
2019-06-20T10:08:16.000Z,51.84
2019-06-20T10:09:15.461Z,51.65
2019-06-20T10:10:15.617Z,51.97
2019-06-20T10:11:16.509Z,50.65
2019-06-20T10:12:15.987Z,51.75
2019-06-20T10:13:16.130Z,52.04
2019-06-20T10:14:17.008Z,52.09
2019-06-20T10:15:16.463Z,52.96
2019-06-20T10:16:17.494Z,52.14
2019-06-20T10:17:16.952Z,51.32
2019-06-20T10:18:17.513Z,52.37
2019-06-20T10:19:17.240Z,50.81
2019-06-20T10:20:17.375Z,50.43
2019-06-20T10:21:17.521Z,51.10
2019-06-20T10:22:17.648Z,50.53
2019-06-20T10:23:17.787Z,52.02
2019-06-20T10:24:18.053Z,52.22
2019-06-20T10:25:18.172Z,52.12
2019-06-20T10:26:18.293Z,51.35
2019-06-20T10:27:18.522Z,52.04
2019-06-20T10:28:18.755Z,52.42
2019-06-20T10:29:18.903Z,50.68
2019-06-20T10:30:19.004Z,50.78
2019-06-20T10:31:19.996Z,50.98
2019-06-20T10:32:20.013Z,49.29
2019-06-20T10:33:19.488Z,49.44
2019-06-20T10:34:19.675Z,50.26
2019-06-20T10:35:19.814Z,52.74
2019-06-20T10:36:19.969Z,51.84
2019-06-20T10:37:20.147Z,51.75
2019-06-20T10:38:21.008Z,52.12
2019-06-20T10:39:20.533Z,50.85
2019-06-20T10:40:20.639Z,50.68
2019-06-20T10:41:20.743Z,52.26
2019-06-20T10:42:20.902Z,51.84
2019-06-20T10:43:21.051Z,50.38
2019-06-20T10:44:22.027Z,52.67
2019-06-20T10:45:22.016Z,50.45
2019-06-20T10:46:21.767Z,50.31
2019-06-20T10:47:32.418Z,49.46
2019-06-20T10:48:24.096Z,49.34
2019-06-20T10:49:23.013Z,49.32
2019-06-20T10:50:22.517Z,48.50
2019-06-20T10:51:22.628Z,50.98
2019-06-20T10:52:23.520Z,49.79
2019-06-20T10:53:22.991Z,49.88
2019-06-20T10:54:24.017Z,48.18
2019-06-20T10:55:23.264Z,50.78
2019-06-20T10:56:24.017Z,49.29
2019-06-20T10:57:23.621Z,50.51
2019-06-20T10:58:23.850Z,50.56
2019-06-20T10:59:24.114Z,48.82
2019-06-20T11:00:31.524Z,48.45
2019-06-20T11:01:26.535Z,48.87
2019-06-20T11:02:24.617Z,50.21
2019-06-20T11:03:25.034Z,48.72
2019-06-20T11:04:24.889Z,49.04
2019-06-20T11:05:25.134Z,49.66
2019-06-20T11:06:25.279Z,50.68
2019-06-20T11:07:25.403Z,50.65
2019-06-20T11:08:26.028Z,50.51
2019-06-20T11:09:25.778Z,50.83
2019-06-20T11:10:25.900Z,49.24
2019-06-20T11:11:26.063Z,49.07
2019-06-20T11:12:26.192Z,50.85
2019-06-20T11:13:26.319Z,50.85
2019-06-20T11:14:27.523Z,51.03
2019-06-20T11:15:26.726Z,49.21
2019-06-20T11:16:26.895Z,49.51
2019-06-20T11:17:28.020Z,49.19
2019-06-20T11:18:27.252Z,49.09
2019-06-20T11:19:28.023Z,48.32
2019-06-20T11:20:27.535Z,50.13
2019-06-20T11:21:27.676Z,49.21
2019-06-20T11:22:28.044Z,50.60
2019-06-20T11:23:28.025Z,51.00
2019-06-20T11:24:28.192Z,49.84
2019-06-20T11:25:29.034Z,51.25
2019-06-20T11:26:28.539Z,50.95
2019-06-20T11:27:28.718Z,51.54
2019-06-20T11:28:28.892Z,50.16
2019-06-20T11:29:30.030Z,51.52
2019-06-20T11:30:29.277Z,50.11
2019-06-20T11:31:30.045Z,48.92
2019-06-20T11:32:30.524Z,50.21
2019-06-20T11:33:29.797Z,49.79
2019-06-20T11:34:29.920Z,49.17
2019-06-20T11:35:30.065Z,48.27
2019-06-20T11:36:30.189Z,48.18
2019-06-20T11:37:30.339Z,48.27
2019-06-20T11:38:30.509Z,46.39
2019-06-20T11:39:30.647Z,48.08
2019-06-20T11:40:31.539Z,48.57
2019-06-20T11:41:31.535Z,48.72
2019-06-20T11:42:31.162Z,49.91
2019-06-20T11:43:31.343Z,49.21
2019-06-20T11:44:31.484Z,49.29
2019-06-20T11:45:31.603Z,47.53
2019-06-20T11:46:32.538Z,49.51
2019-06-20T11:47:31.875Z,49.54
2019-06-20T11:48:32.172Z,49.02
2019-06-20T11:49:34.572Z,46.52
2019-06-20T11:50:34.448Z,48.70
2019-06-20T11:51:34.359Z,48.90
2019-06-20T11:52:38.096Z,47.99
2019-06-20T11:53:36.469Z,47.86
2019-06-20T11:54:34.369Z,46.97
2019-06-20T11:55:33.368Z,47.07
2019-06-20T11:56:33.490Z,47.94
2019-06-20T11:57:33.635Z,46.23
2019-06-20T11:58:34.066Z,45.01
2019-06-20T11:59:33.915Z,44.87
2019-06-20T12:00:34.075Z,45.67
2019-06-20T12:01:34.224Z,43.45
2019-06-20T12:02:34.373Z,44.78
2019-06-20T12:03:35.045Z,46.30
2019-06-20T12:04:34.671Z,47.78
2019-06-20T12:05:34.827Z,46.28
2019-06-20T12:06:35.192Z,47.56
2019-06-20T12:07:35.224Z,45.23
2019-06-20T12:08:35.371Z,48.60
2019-06-20T12:09:36.570Z,47.02
2019-06-20T12:10:38.053Z,47.09
2019-06-20T12:11:35.885Z,47.27
2019-06-20T12:12:36.034Z,45.37
2019-06-20T12:13:36.152Z,45.41
2019-06-20T12:14:37.928Z,46.33
2019-06-20T12:15:38.099Z,46.92
2019-06-20T12:16:39.138Z,48.13
2019-06-20T12:17:38.166Z,49.10
2019-06-20T12:18:38.669Z,47.78
2019-06-20T12:19:38.283Z,47.27
2019-06-20T12:20:37.874Z,48.16
2019-06-20T12:21:38.015Z,47.07
2019-06-20T12:22:39.927Z,48.18
2019-06-20T12:23:39.063Z,46.92
2019-06-20T12:24:39.660Z,48.82
2019-06-20T12:25:40.971Z,49.12
2019-06-20T12:26:40.454Z,47.63
2019-06-20T12:27:40.786Z,48.03
2019-06-20T12:28:39.645Z,48.50
2019-06-20T12:29:40.667Z,47.59
2019-06-20T12:30:41.564Z,47.61
2019-06-20T12:31:40.984Z,48.21
2019-06-20T12:32:40.652Z,48.28
2019-06-20T12:33:40.985Z,47.39
2019-06-20T12:34:42.079Z,45.98
2019-06-20T12:35:41.356Z,47.12
2019-06-20T12:36:40.887Z,47.22
2019-06-20T12:37:40.573Z,47.31
2019-06-20T12:38:41.490Z,48.01
2019-06-20T12:39:42.047Z,47.71
2019-06-20T12:40:42.401Z,48.43
2019-06-20T12:41:43.161Z,48.35
2019-06-20T12:42:42.958Z,48.85
2019-06-20T12:43:42.375Z,49.15
2019-06-20T12:44:41.729Z,49.37
2019-06-20T12:45:42.847Z,48.57
2019-06-20T12:46:42.899Z,49.32
2019-06-20T12:47:42.073Z,50.09
2019-06-20T12:48:42.803Z,49.11
2019-06-20T12:49:43.753Z,48.72
2019-06-20T12:50:43.128Z,50.31
2019-06-20T12:51:42.834Z,48.54
2019-06-20T12:52:43.123Z,51.10
2019-06-20T12:53:44.175Z,50.40
2019-06-20T12:54:44.905Z,50.70
2019-06-20T12:55:45.683Z,51.42
2019-06-20T12:56:44.045Z,50.63
2019-06-20T12:57:46.335Z,51.82
2019-06-20T12:58:46.600Z,51.32
2019-06-20T12:59:44.655Z,50.35
2019-06-20T13:00:46.562Z,50.73